sensor_id;sensor_type;location;lat;lon;timestamp;P1;durP1;ratioP1;P2;durP2;ratioP2
4023;SDS011;2026;51.002;13.668;2023-02-28T00:02:39;6.60;;;4.73;;
4023;SDS011;2026;51.002;13.668;2023-02-28T00:07:42;6.30;;;4.60;;
4023;SDS011;2026;51.002;13.668;2023-02-28T00:12:47;7.00;;;4.80;;
4023;SDS011;2026;51.002;13.668;2023-02-28T00:17:50;7.10;;;4.87;;
4023;SDS011;2026;51.002;13.668;2023-02-28T00:22:53;8.63;;;5.30;;
4023;SDS011;2026;51.002;13.668;2023-02-28T00:27:58;9.30;;;5.37;;
4023;SDS011;2026;51.002;13.668;2023-02-28T00:33:01;10.10;;;5.03;;
4023;SDS011;2026;51.002;13.668;2023-02-28T00:38:03;6.73;;;4.93;;
4023;SDS011;2026;51.002;13.668;2023-02-28T00:43:10;8.23;;;5.63;;
4023;SDS011;2026;51.002;13.668;2023-02-28T00:48:13;8.97;;;5.20;;
4023;SDS011;2026;51.002;13.668;2023-02-28T00:53:17;7.47;;;4.70;;
4023;SDS011;2026;51.002;13.668;2023-02-28T00:58:21;7.60;;;5.00;;
4023;SDS011;2026;51.002;13.668;2023-02-28T01:03:25;8.23;;;4.97;;
4023;SDS011;2026;51.002;13.668;2023-02-28T01:08:28;9.17;;;5.10;;
4023;SDS011;2026;51.002;13.668;2023-02-28T01:13:32;8.20;;;5.37;;
4023;SDS011;2026;51.002;13.668;2023-02-28T01:18:35;6.73;;;4.53;;
4023;SDS011;2026;51.002;13.668;2023-02-28T01:23:38;6.97;;;5.03;;
4023;SDS011;2026;51.002;13.668;2023-02-28T01:28:45;7.90;;;4.90;;
4023;SDS011;2026;51.002;13.668;2023-02-28T01:33:49;6.00;;;4.60;;
4023;SDS011;2026;51.002;13.668;2023-02-28T01:38:52;10.57;;;5.30;;
4023;SDS011;2026;51.002;13.668;2023-02-28T01:43:58;11.17;;;4.77;;
4023;SDS011;2026;51.002;13.668;2023-02-28T01:49:06;9.47;;;4.73;;
4023;SDS011;2026;51.002;13.668;2023-02-28T01:54:12;8.87;;;5.13;;
4023;SDS011;2026;51.002;13.668;2023-02-28T01:59:23;8.90;;;5.13;;
4023;SDS011;2026;51.002;13.668;2023-02-28T02:04:34;8.93;;;5.10;;
4023;SDS011;2026;51.002;13.668;2023-02-28T02:09:42;9.13;;;5.97;;
4023;SDS011;2026;51.002;13.668;2023-02-28T02:14:50;8.93;;;5.37;;
4023;SDS011;2026;51.002;13.668;2023-02-28T02:25:39;12.03;;;6.80;;
4023;SDS011;2026;51.002;13.668;2023-02-28T02:30:57;8.20;;;6.30;;
4023;SDS011;2026;51.002;13.668;2023-02-28T02:36:11;9.87;;;6.37;;
4023;SDS011;2026;51.002;13.668;2023-02-28T02:41:23;7.90;;;6.20;;
4023;SDS011;2026;51.002;13.668;2023-02-28T02:46:32;9.80;;;5.43;;
4023;SDS011;2026;51.002;13.668;2023-02-28T02:51:38;7.80;;;5.50;;
4023;SDS011;2026;51.002;13.668;2023-02-28T02:56:43;10.80;;;5.93;;
4023;SDS011;2026;51.002;13.668;2023-02-28T03:01:51;8.57;;;5.53;;
4023;SDS011;2026;51.002;13.668;2023-02-28T03:06:58;11.80;;;6.20;;
4023;SDS011;2026;51.002;13.668;2023-02-28T03:12:01;10.17;;;6.40;;
4023;SDS011;2026;51.002;13.668;2023-02-28T03:17:10;12.13;;;6.87;;
4023;SDS011;2026;51.002;13.668;2023-02-28T03:22:27;12.27;;;6.37;;
4023;SDS011;2026;51.002;13.668;2023-02-28T03:27:44;10.10;;;7.03;;
4023;SDS011;2026;51.002;13.668;2023-02-28T03:32:58;11.97;;;6.83;;
4023;SDS011;2026;51.002;13.668;2023-02-28T03:38:09;11.83;;;6.00;;
4023;SDS011;2026;51.002;13.668;2023-02-28T03:43:18;11.37;;;7.20;;
4023;SDS011;2026;51.002;13.668;2023-02-28T03:48:27;11.97;;;6.73;;
4023;SDS011;2026;51.002;13.668;2023-02-28T03:53:40;10.10;;;6.90;;
4023;SDS011;2026;51.002;13.668;2023-02-28T03:58:47;11.10;;;6.70;;
4023;SDS011;2026;51.002;13.668;2023-02-28T04:03:56;10.77;;;7.00;;
4023;SDS011;2026;51.002;13.668;2023-02-28T04:09:00;9.47;;;6.57;;
4023;SDS011;2026;51.002;13.668;2023-02-28T04:14:04;11.27;;;6.43;;
4023;SDS011;2026;51.002;13.668;2023-02-28T04:19:09;17.83;;;8.33;;
4023;SDS011;2026;51.002;13.668;2023-02-28T04:24:16;14.00;;;6.87;;
4023;SDS011;2026;51.002;13.668;2023-02-28T04:29:21;13.00;;;7.47;;
4023;SDS011;2026;51.002;13.668;2023-02-28T04:34:26;10.43;;;6.40;;
4023;SDS011;2026;51.002;13.668;2023-02-28T04:39:34;11.87;;;7.70;;
4023;SDS011;2026;51.002;13.668;2023-02-28T04:44:38;13.00;;;7.10;;
4023;SDS011;2026;51.002;13.668;2023-02-28T04:49:41;16.10;;;8.30;;
4023;SDS011;2026;51.002;13.668;2023-02-28T04:54:45;17.03;;;8.90;;
4023;SDS011;2026;51.002;13.668;2023-02-28T04:59:48;17.60;;;9.23;;
4023;SDS011;2026;51.002;13.668;2023-02-28T05:04:51;14.40;;;7.53;;
4023;SDS011;2026;51.002;13.668;2023-02-28T05:09:56;19.20;;;8.73;;
4023;SDS011;2026;51.002;13.668;2023-02-28T05:14:59;16.53;;;9.20;;
4023;SDS011;2026;51.002;13.668;2023-02-28T05:20:03;14.87;;;8.90;;
4023;SDS011;2026;51.002;13.668;2023-02-28T05:25:18;19.20;;;8.80;;
4023;SDS011;2026;51.002;13.668;2023-02-28T05:30:22;16.77;;;9.80;;
4023;SDS011;2026;51.002;13.668;2023-02-28T05:35:26;23.07;;;9.63;;
4023;SDS011;2026;51.002;13.668;2023-02-28T05:40:30;16.73;;;8.87;;
4023;SDS011;2026;51.002;13.668;2023-02-28T05:45:33;18.60;;;9.40;;
4023;SDS011;2026;51.002;13.668;2023-02-28T05:50:36;14.53;;;8.33;;
4023;SDS011;2026;51.002;13.668;2023-02-28T05:55:40;19.47;;;10.00;;
4023;SDS011;2026;51.002;13.668;2023-02-28T06:00:43;36.53;;;14.67;;
4023;SDS011;2026;51.002;13.668;2023-02-28T06:05:46;24.93;;;13.60;;
4023;SDS011;2026;51.002;13.668;2023-02-28T06:10:51;19.30;;;10.73;;
4023;SDS011;2026;51.002;13.668;2023-02-28T06:15:54;17.33;;;10.40;;
4023;SDS011;2026;51.002;13.668;2023-02-28T06:20:57;19.43;;;9.57;;
4023;SDS011;2026;51.002;13.668;2023-02-28T06:26:01;18.50;;;10.07;;
4023;SDS011;2026;51.002;13.668;2023-02-28T06:31:07;16.93;;;9.53;;
4023;SDS011;2026;51.002;13.668;2023-02-28T06:36:12;16.73;;;9.40;;
4023;SDS011;2026;51.002;13.668;2023-02-28T06:41:18;14.23;;;8.20;;
4023;SDS011;2026;51.002;13.668;2023-02-28T06:46:21;20.70;;;9.27;;
4023;SDS011;2026;51.002;13.668;2023-02-28T06:51:24;16.27;;;9.47;;
4023;SDS011;2026;51.002;13.668;2023-02-28T06:56:30;20.00;;;11.17;;
4023;SDS011;2026;51.002;13.668;2023-02-28T07:01:33;20.13;;;10.97;;
4023;SDS011;2026;51.002;13.668;2023-02-28T07:06:36;22.30;;;10.20;;
4023;SDS011;2026;51.002;13.668;2023-02-28T07:11:40;19.13;;;11.27;;
4023;SDS011;2026;51.002;13.668;2023-02-28T07:16:44;19.80;;;12.43;;
4023;SDS011;2026;51.002;13.668;2023-02-28T07:21:47;21.47;;;12.30;;
4023;SDS011;2026;51.002;13.668;2023-02-28T07:26:51;24.50;;;14.10;;
4023;SDS011;2026;51.002;13.668;2023-02-28T07:31:54;23.40;;;12.63;;
4023;SDS011;2026;51.002;13.668;2023-02-28T07:36:58;19.87;;;12.20;;
4023;SDS011;2026;51.002;13.668;2023-02-28T07:42:05;23.53;;;13.47;;
4023;SDS011;2026;51.002;13.668;2023-02-28T07:47:10;25.70;;;15.67;;
4023;SDS011;2026;51.002;13.668;2023-02-28T07:52:13;28.73;;;15.63;;
4023;SDS011;2026;51.002;13.668;2023-02-28T07:57:18;27.93;;;16.03;;
4023;SDS011;2026;51.002;13.668;2023-02-28T08:02:21;22.70;;;13.70;;
4023;SDS011;2026;51.002;13.668;2023-02-28T08:07:23;22.00;;;13.17;;
4023;SDS011;2026;51.002;13.668;2023-02-28T08:12:28;22.80;;;13.63;;
4023;SDS011;2026;51.002;13.668;2023-02-28T08:17:31;24.17;;;14.00;;
4023;SDS011;2026;51.002;13.668;2023-02-28T08:22:35;24.80;;;14.00;;
4023;SDS011;2026;51.002;13.668;2023-02-28T08:27:40;19.63;;;9.67;;
4023;SDS011;2026;51.002;13.668;2023-02-28T08:32:43;15.27;;;8.43;;
4023;SDS011;2026;51.002;13.668;2023-02-28T08:37:47;19.10;;;9.00;;
4023;SDS011;2026;51.002;13.668;2023-02-28T08:42:51;15.23;;;8.73;;
4023;SDS011;2026;51.002;13.668;2023-02-28T08:47:54;15.10;;;8.93;;
4023;SDS011;2026;51.002;13.668;2023-02-28T08:52:57;17.03;;;9.10;;
4023;SDS011;2026;51.002;13.668;2023-02-28T08:58:02;17.47;;;8.63;;
4023;SDS011;2026;51.002;13.668;2023-02-28T09:03:05;18.87;;;9.03;;
4023;SDS011;2026;51.002;13.668;2023-02-28T09:08:10;16.97;;;8.63;;
4023;SDS011;2026;51.002;13.668;2023-02-28T09:13:17;14.27;;;8.33;;
4023;SDS011;2026;51.002;13.668;2023-02-28T09:18:20;16.00;;;8.80;;
4023;SDS011;2026;51.002;13.668;2023-02-28T09:23:23;16.70;;;8.10;;
4023;SDS011;2026;51.002;13.668;2023-02-28T09:28:28;16.70;;;9.37;;
4023;SDS011;2026;51.002;13.668;2023-02-28T09:33:31;15.60;;;8.40;;
4023;SDS011;2026;51.002;13.668;2023-02-28T09:38:35;14.20;;;8.20;;
4023;SDS011;2026;51.002;13.668;2023-02-28T09:43:40;15.97;;;8.27;;
4023;SDS011;2026;51.002;13.668;2023-02-28T09:48:47;12.70;;;7.10;;
4023;SDS011;2026;51.002;13.668;2023-02-28T09:53:51;11.40;;;7.07;;
4023;SDS011;2026;51.002;13.668;2023-02-28T09:59:04;13.67;;;7.60;;
4023;SDS011;2026;51.002;13.668;2023-02-28T10:04:14;12.37;;;7.40;;
4023;SDS011;2026;51.002;13.668;2023-02-28T10:09:29;14.30;;;8.87;;
4023;SDS011;2026;51.002;13.668;2023-02-28T10:14:36;15.73;;;7.87;;
4023;SDS011;2026;51.002;13.668;2023-02-28T10:19:50;12.37;;;7.33;;
4023;SDS011;2026;51.002;13.668;2023-02-28T10:25:04;20.03;;;8.47;;
4023;SDS011;2026;51.002;13.668;2023-02-28T10:30:20;11.50;;;7.83;;
4023;SDS011;2026;51.002;13.668;2023-02-28T10:35:24;14.97;;;8.20;;
4023;SDS011;2026;51.002;13.668;2023-02-28T10:40:30;12.67;;;8.07;;
4023;SDS011;2026;51.002;13.668;2023-02-28T10:45:36;14.13;;;8.30;;
4023;SDS011;2026;51.002;13.668;2023-02-28T10:50:42;14.80;;;8.57;;
4023;SDS011;2026;51.002;13.668;2023-02-28T10:55:46;14.97;;;8.30;;
4023;SDS011;2026;51.002;13.668;2023-02-28T11:01:01;17.07;;;9.17;;
4023;SDS011;2026;51.002;13.668;2023-02-28T11:06:05;22.17;;;9.40;;
4023;SDS011;2026;51.002;13.668;2023-02-28T11:11:10;14.10;;;8.57;;
4023;SDS011;2026;51.002;13.668;2023-02-28T11:16:14;15.70;;;9.13;;
4023;SDS011;2026;51.002;13.668;2023-02-28T11:21:23;17.83;;;8.83;;
4023;SDS011;2026;51.002;13.668;2023-02-28T11:26:36;15.73;;;8.27;;
4023;SDS011;2026;51.002;13.668;2023-02-28T11:31:43;15.73;;;8.93;;
4023;SDS011;2026;51.002;13.668;2023-02-28T11:36:46;13.50;;;8.60;;
4023;SDS011;2026;51.002;13.668;2023-02-28T11:41:57;15.47;;;9.40;;
4023;SDS011;2026;51.002;13.668;2023-02-28T11:47:15;15.83;;;9.20;;
4023;SDS011;2026;51.002;13.668;2023-02-28T11:52:29;13.13;;;8.73;;
4023;SDS011;2026;51.002;13.668;2023-02-28T11:57:53;26.87;;;8.90;;
4023;SDS011;2026;51.002;13.668;2023-02-28T12:03:30;15.57;;;7.97;;
4023;SDS011;2026;51.002;13.668;2023-02-28T12:08:43;14.20;;;7.83;;
4023;SDS011;2026;51.002;13.668;2023-02-28T12:13:53;14.37;;;9.40;;
4023;SDS011;2026;51.002;13.668;2023-02-28T12:19:09;15.53;;;9.47;;
4023;SDS011;2026;51.002;13.668;2023-02-28T12:24:24;14.60;;;8.97;;
4023;SDS011;2026;51.002;13.668;2023-02-28T12:29:43;12.97;;;8.47;;
4023;SDS011;2026;51.002;13.668;2023-02-28T12:34:53;16.90;;;9.13;;
4023;SDS011;2026;51.002;13.668;2023-02-28T12:40:01;15.67;;;8.80;;
4023;SDS011;2026;51.002;13.668;2023-02-28T12:45:09;13.90;;;9.30;;
4023;SDS011;2026;51.002;13.668;2023-02-28T12:50:18;15.30;;;9.40;;
4023;SDS011;2026;51.002;13.668;2023-02-28T12:55:23;10.77;;;8.60;;
4023;SDS011;2026;51.002;13.668;2023-02-28T13:00:35;13.80;;;8.90;;
4023;SDS011;2026;51.002;13.668;2023-02-28T13:05:53;13.80;;;9.17;;
4023;SDS011;2026;51.002;13.668;2023-02-28T13:11:07;14.33;;;9.10;;
4023;SDS011;2026;51.002;13.668;2023-02-28T13:16:26;19.43;;;9.00;;
4023;SDS011;2026;51.002;13.668;2023-02-28T13:21:32;11.60;;;8.50;;
4023;SDS011;2026;51.002;13.668;2023-02-28T13:32:35;13.70;;;8.77;;
4023;SDS011;2026;51.002;13.668;2023-02-28T13:37:43;11.33;;;8.37;;
4023;SDS011;2026;51.002;13.668;2023-02-28T13:42:47;13.73;;;9.57;;
4023;SDS011;2026;51.002;13.668;2023-02-28T13:47:52;14.80;;;9.27;;
4023;SDS011;2026;51.002;13.668;2023-02-28T13:58:41;18.47;;;11.03;;
4023;SDS011;2026;51.002;13.668;2023-02-28T14:09:30;19.63;;;10.00;;
4023;SDS011;2026;51.002;13.668;2023-02-28T14:14:55;17.90;;;11.13;;
4023;SDS011;2026;51.002;13.668;2023-02-28T14:19:59;17.03;;;10.90;;
4023;SDS011;2026;51.002;13.668;2023-02-28T14:25:18;20.60;;;10.87;;
4023;SDS011;2026;51.002;13.668;2023-02-28T14:36:16;17.03;;;10.67;;
4023;SDS011;2026;51.002;13.668;2023-02-28T14:41:29;16.77;;;11.90;;
4023;SDS011;2026;51.002;13.668;2023-02-28T14:46:35;21.00;;;13.47;;
4023;SDS011;2026;51.002;13.668;2023-02-28T14:51:40;22.90;;;13.87;;
4023;SDS011;2026;51.002;13.668;2023-02-28T14:56:48;18.67;;;12.10;;
4023;SDS011;2026;51.002;13.668;2023-02-28T15:02:07;17.70;;;10.47;;
4023;SDS011;2026;51.002;13.668;2023-02-28T15:07:20;17.97;;;10.33;;
4023;SDS011;2026;51.002;13.668;2023-02-28T15:12:31;18.73;;;11.77;;
4023;SDS011;2026;51.002;13.668;2023-02-28T15:17:34;17.17;;;10.70;;
4023;SDS011;2026;51.002;13.668;2023-02-28T15:22:37;17.13;;;10.73;;
4023;SDS011;2026;51.002;13.668;2023-02-28T15:27:44;19.40;;;11.57;;
4023;SDS011;2026;51.002;13.668;2023-02-28T15:33:01;19.80;;;10.97;;
4023;SDS011;2026;51.002;13.668;2023-02-28T15:38:13;19.73;;;11.90;;
4023;SDS011;2026;51.002;13.668;2023-02-28T15:43:22;19.83;;;11.47;;
4023;SDS011;2026;51.002;13.668;2023-02-28T15:48:27;21.80;;;11.83;;
4023;SDS011;2026;51.002;13.668;2023-02-28T15:53:34;20.30;;;11.13;;
4023;SDS011;2026;51.002;13.668;2023-02-28T15:58:41;19.23;;;11.63;;
4023;SDS011;2026;51.002;13.668;2023-02-28T16:03:45;21.50;;;12.70;;
4023;SDS011;2026;51.002;13.668;2023-02-28T16:08:51;19.83;;;12.53;;
4023;SDS011;2026;51.002;13.668;2023-02-28T16:13:55;21.73;;;12.57;;
4023;SDS011;2026;51.002;13.668;2023-02-28T16:18:59;21.53;;;12.30;;
4023;SDS011;2026;51.002;13.668;2023-02-28T16:24:02;20.07;;;12.27;;
4023;SDS011;2026;51.002;13.668;2023-02-28T16:29:07;23.33;;;13.43;;
4023;SDS011;2026;51.002;13.668;2023-02-28T16:34:12;27.37;;;15.50;;
4023;SDS011;2026;51.002;13.668;2023-02-28T16:39:14;23.20;;;15.50;;
4023;SDS011;2026;51.002;13.668;2023-02-28T16:44:21;22.80;;;12.70;;
4023;SDS011;2026;51.002;13.668;2023-02-28T16:49:30;24.43;;;11.67;;
4023;SDS011;2026;51.002;13.668;2023-02-28T16:54:33;20.30;;;11.90;;
4023;SDS011;2026;51.002;13.668;2023-02-28T16:59:37;26.23;;;13.30;;
4023;SDS011;2026;51.002;13.668;2023-02-28T17:04:40;24.23;;;13.37;;
4023;SDS011;2026;51.002;13.668;2023-02-28T17:09:43;25.87;;;13.00;;
4023;SDS011;2026;51.002;13.668;2023-02-28T17:14:48;25.77;;;15.30;;
4023;SDS011;2026;51.002;13.668;2023-02-28T17:19:51;33.20;;;20.30;;
4023;SDS011;2026;51.002;13.668;2023-02-28T17:24:54;27.20;;;15.43;;
4023;SDS011;2026;51.002;13.668;2023-02-28T17:30:00;26.87;;;15.30;;
4023;SDS011;2026;51.002;13.668;2023-02-28T17:35:04;31.03;;;15.80;;
4023;SDS011;2026;51.002;13.668;2023-02-28T17:40:11;36.90;;;20.07;;
4023;SDS011;2026;51.002;13.668;2023-02-28T17:45:18;26.30;;;15.03;;
4023;SDS011;2026;51.002;13.668;2023-02-28T17:50:22;24.03;;;12.87;;
4023;SDS011;2026;51.002;13.668;2023-02-28T17:55:25;25.57;;;15.50;;
4023;SDS011;2026;51.002;13.668;2023-02-28T18:00:29;22.80;;;12.87;;
4023;SDS011;2026;51.002;13.668;2023-02-28T18:05:34;23.00;;;13.77;;
4023;SDS011;2026;51.002;13.668;2023-02-28T18:10:38;23.83;;;11.90;;
4023;SDS011;2026;51.002;13.668;2023-02-28T18:15:42;19.90;;;12.60;;
4023;SDS011;2026;51.002;13.668;2023-02-28T18:20:45;25.50;;;13.33;;
4023;SDS011;2026;51.002;13.668;2023-02-28T18:25:49;25.67;;;15.63;;
4023;SDS011;2026;51.002;13.668;2023-02-28T18:30:54;22.97;;;13.70;;
4023;SDS011;2026;51.002;13.668;2023-02-28T18:35:56;24.37;;;13.10;;
4023;SDS011;2026;51.002;13.668;2023-02-28T18:41:01;22.00;;;12.90;;
4023;SDS011;2026;51.002;13.668;2023-02-28T18:46:08;21.50;;;11.20;;
4023;SDS011;2026;51.002;13.668;2023-02-28T18:51:13;18.30;;;11.70;;
4023;SDS011;2026;51.002;13.668;2023-02-28T18:56:18;25.43;;;12.97;;
4023;SDS011;2026;51.002;13.668;2023-02-28T19:01:25;30.70;;;16.03;;
4023;SDS011;2026;51.002;13.668;2023-02-28T19:06:31;28.00;;;15.80;;
4023;SDS011;2026;51.002;13.668;2023-02-28T19:11:35;25.93;;;14.80;;
4023;SDS011;2026;51.002;13.668;2023-02-28T19:16:39;28.07;;;16.00;;
4023;SDS011;2026;51.002;13.668;2023-02-28T19:21:42;33.27;;;16.87;;
4023;SDS011;2026;51.002;13.668;2023-02-28T19:26:45;27.73;;;16.70;;
4023;SDS011;2026;51.002;13.668;2023-02-28T19:31:50;25.73;;;16.40;;
4023;SDS011;2026;51.002;13.668;2023-02-28T19:36:53;30.80;;;15.93;;
4023;SDS011;2026;51.002;13.668;2023-02-28T19:41:57;34.13;;;16.40;;
4023;SDS011;2026;51.002;13.668;2023-02-28T19:47:01;30.40;;;16.20;;
4023;SDS011;2026;51.002;13.668;2023-02-28T19:52:04;31.67;;;17.83;;
4023;SDS011;2026;51.002;13.668;2023-02-28T19:57:15;27.43;;;16.77;;
4023;SDS011;2026;51.002;13.668;2023-02-28T20:02:20;29.07;;;18.93;;
4023;SDS011;2026;51.002;13.668;2023-02-28T20:07:24;38.00;;;18.80;;
4023;SDS011;2026;51.002;13.668;2023-02-28T20:12:27;31.10;;;17.37;;
4023;SDS011;2026;51.002;13.668;2023-02-28T20:17:32;35.63;;;18.47;;
4023;SDS011;2026;51.002;13.668;2023-02-28T20:22:34;32.90;;;20.67;;
4023;SDS011;2026;51.002;13.668;2023-02-28T20:27:38;34.47;;;20.70;;
4023;SDS011;2026;51.002;13.668;2023-02-28T20:32:43;38.13;;;22.60;;
4023;SDS011;2026;51.002;13.668;2023-02-28T20:37:46;33.10;;;20.03;;
4023;SDS011;2026;51.002;13.668;2023-02-28T20:42:49;40.43;;;23.13;;
4023;SDS011;2026;51.002;13.668;2023-02-28T20:47:54;43.20;;;21.67;;
4023;SDS011;2026;51.002;13.668;2023-02-28T20:52:57;42.83;;;23.70;;
4023;SDS011;2026;51.002;13.668;2023-02-28T20:58:00;40.80;;;24.10;;
4023;SDS011;2026;51.002;13.668;2023-02-28T21:03:04;39.90;;;21.27;;
4023;SDS011;2026;51.002;13.668;2023-02-28T21:08:07;39.80;;;22.13;;
4023;SDS011;2026;51.002;13.668;2023-02-28T21:13:10;38.53;;;21.60;;
4023;SDS011;2026;51.002;13.668;2023-02-28T21:18:15;41.57;;;24.30;;
4023;SDS011;2026;51.002;13.668;2023-02-28T21:23:17;41.40;;;23.47;;
4023;SDS011;2026;51.002;13.668;2023-02-28T21:28:20;44.90;;;23.63;;
4023;SDS011;2026;51.002;13.668;2023-02-28T21:33:25;43.93;;;26.40;;
4023;SDS011;2026;51.002;13.668;2023-02-28T21:38:28;47.97;;;27.40;;
4023;SDS011;2026;51.002;13.668;2023-02-28T21:43:31;53.00;;;27.13;;
4023;SDS011;2026;51.002;13.668;2023-02-28T21:48:35;49.27;;;26.70;;
4023;SDS011;2026;51.002;13.668;2023-02-28T21:53:39;57.43;;;28.67;;
4023;SDS011;2026;51.002;13.668;2023-02-28T21:58:43;58.30;;;28.43;;
4023;SDS011;2026;51.002;13.668;2023-02-28T22:03:48;40.30;;;23.20;;
4023;SDS011;2026;51.002;13.668;2023-02-28T22:08:52;43.77;;;23.57;;
4023;SDS011;2026;51.002;13.668;2023-02-28T22:13:56;34.40;;;18.90;;
4023;SDS011;2026;51.002;13.668;2023-02-28T22:19:01;35.63;;;19.47;;
4023;SDS011;2026;51.002;13.668;2023-02-28T22:24:06;40.43;;;21.67;;
4023;SDS011;2026;51.002;13.668;2023-02-28T22:29:10;37.80;;;20.23;;
4023;SDS011;2026;51.002;13.668;2023-02-28T22:34:15;40.17;;;22.10;;
4023;SDS011;2026;51.002;13.668;2023-02-28T22:39:17;45.90;;;23.90;;
4023;SDS011;2026;51.002;13.668;2023-02-28T22:44:21;49.20;;;23.80;;
4023;SDS011;2026;51.002;13.668;2023-02-28T22:49:26;45.33;;;23.93;;
4023;SDS011;2026;51.002;13.668;2023-02-28T22:54:29;45.10;;;25.20;;
4023;SDS011;2026;51.002;13.668;2023-02-28T22:59:32;44.83;;;24.53;;
4023;SDS011;2026;51.002;13.668;2023-02-28T23:04:36;56.43;;;25.73;;
4023;SDS011;2026;51.002;13.668;2023-02-28T23:09:39;51.53;;;24.50;;
4023;SDS011;2026;51.002;13.668;2023-02-28T23:14:42;45.43;;;24.03;;
4023;SDS011;2026;51.002;13.668;2023-02-28T23:19:47;50.97;;;25.50;;
4023;SDS011;2026;51.002;13.668;2023-02-28T23:24:50;51.70;;;24.53;;
4023;SDS011;2026;51.002;13.668;2023-02-28T23:29:54;46.83;;;24.40;;
4023;SDS011;2026;51.002;13.668;2023-02-28T23:34:59;42.33;;;23.23;;
4023;SDS011;2026;51.002;13.668;2023-02-28T23:40:03;45.53;;;23.03;;
4023;SDS011;2026;51.002;13.668;2023-02-28T23:45:09;40.30;;;22.73;;
4023;SDS011;2026;51.002;13.668;2023-02-28T23:50:14;46.77;;;22.47;;
4023;SDS011;2026;51.002;13.668;2023-02-28T23:55:17;43.57;;;20.87;;
